Time;durP1;ratioP1;P1;durP2;ratioP2;P2;SDS_P1;SDS_P2;PMS_P1;PMS_P2;Temp;Humidity;BMP_temperature;BMP_pressure;BME280_temperature;BME280_humidity;BME280_pressure;Samples;Min_cycle;Max_cycle;Signal;HPM_P1;HPM_P2
2022/08/18 00:01:21;;;;;;;13.02;6.35;;;;;;;17.58;100.00;99208.47;5070938;28;20545;-86
2022/08/18 00:03:48;;;;;;;12.98;6.85;;;;;;;17.57;100.00;99207.66;5066283;28;20024;-87
2022/08/18 00:06:14;;;;;;;17.55;6.50;;;;;;;17.61;100.00;99205.34;5068498;28;20094;-87
2022/08/18 00:08:39;;;;;;;8.73;6.10;;;;;;;17.56;100.00;99212.19;5052147;28;20041;-87
2022/08/18 00:11:06;;;;;;;11.57;6.28;;;;;;;17.52;100.00;99204.91;5065172;28;20031;-87
2022/08/18 00:13:32;;;;;;;10.38;5.82;;;;;;;17.56;100.00;99204.22;5066737;28;20032;-86
2022/08/18 00:15:58;;;;;;;9.90;6.13;;;;;;;17.49;100.00;99186.81;5047139;28;20032;-88
2022/08/18 00:18:24;;;;;;;10.85;6.20;;;;;;;17.48;100.00;99198.47;5061775;28;20126;-87
2022/08/18 00:20:50;;;;;;;12.70;6.13;;;;;;;17.44;100.00;99192.03;5064152;28;20036;-86
2022/08/18 00:23:17;;;;;;;10.68;5.80;;;;;;;17.42;100.00;99197.56;5047318;28;20037;-85
2022/08/18 00:25:44;;;;;;;9.60;5.88;;;;;;;17.32;100.00;99181.47;5055476;28;20041;-86
2022/08/18 00:28:12;;;;;;;9.05;5.40;;;;;;;17.43;100.00;99191.22;5058333;28;20115;-86
2022/08/18 00:30:38;;;;;;;9.95;5.47;;;;;;;17.33;100.00;99181.22;5041849;28;20029;-87
2022/08/18 00:33:04;;;;;;;8.95;5.93;;;;;;;17.21;100.00;99178.59;5041548;28;20090;-87
2022/08/18 00:35:36;;;;;;;10.82;5.93;;;;;;;17.14;100.00;99185.88;5062237;28;20032;-86
2022/08/18 00:38:04;;;;;;;10.88;5.88;;;;;;;17.05;100.00;99174.84;5064190;28;20659;-87
2022/08/18 00:40:39;;;;;;;13.23;6.15;;;;;;;17.01;100.00;99167.56;5041184;28;20024;-86
2022/08/18 00:43:11;;;;;;;10.52;6.18;;;;;;;16.90;100.00;99162.03;5040144;28;20375;-86
2022/08/18 00:45:39;;;;;;;11.00;5.82;;;;;;;16.94;100.00;99173.78;5046588;28;20461;-86
2022/08/18 00:48:08;;;;;;;9.45;5.70;;;;;;;16.97;100.00;99181.28;5061327;28;20158;-85
2022/08/18 00:50:43;;;;;;;9.90;5.35;;;;;;;17.01;100.00;99178.19;5046566;28;20483;-87
2022/08/18 00:53:26;;;;;;;11.15;5.70;;;;;;;16.94;100.00;99162.34;5048201;28;20116;-87
2022/08/18 00:55:53;;;;;;;8.73;5.57;;;;;;;16.98;100.00;99163.50;5040462;28;20033;-86
2022/08/18 00:58:33;;;;;;;9.40;5.78;;;;;;;16.96;100.00;99161.09;5046906;28;20063;-86
2022/08/18 01:01:04;;;;;;;14.35;6.30;;;;;;;16.94;100.00;99163.19;5064334;28;20036;-86
2022/08/18 01:03:32;;;;;;;9.85;6.03;;;;;;;16.94;100.00;99157.06;5064904;28;20462;-86
2022/08/18 01:06:14;;;;;;;9.88;5.53;;;;;;;16.93;100.00;99150.16;5049513;28;20032;-87
2022/08/18 01:08:40;;;;;;;13.00;5.82;;;;;;;16.90;100.00;99151.44;5042033;28;20119;-86
2022/08/18 01:11:06;;;;;;;10.57;5.82;;;;;;;16.90;100.00;99148.78;5043827;28;20089;-85
2022/08/18 01:13:32;;;;;;;11.13;5.53;;;;;;;16.78;100.00;99145.34;5064664;28;20451;-87
2022/08/18 01:21:49;;;;;;;9.63;5.65;;;;;;;16.83;100.00;99151.56;5045619;28;20059;-86
2022/08/18 01:24:16;;;;;;;11.60;5.95;;;;;;;16.98;100.00;99147.59;5062523;28;20448;-86
2022/08/18 01:26:48;;;;;;;7.72;5.53;;;;;;;16.93;100.00;99137.72;5061312;28;20129;-85
2022/08/18 01:29:17;;;;;;;11.57;5.82;;;;;;;16.98;100.00;99137.84;5042759;28;20037;-87
2022/08/18 01:31:54;;;;;;;9.93;5.30;;;;;;;16.98;100.00;99148.44;5063165;28;20415;-85
2022/08/18 01:34:25;;;;;;;11.65;6.07;;;;;;;17.02;100.00;99143.47;5062608;28;20088;-86
2022/08/18 01:36:51;;;;;;;10.80;5.40;;;;;;;17.06;100.00;99138.50;5061551;28;20025;-87
2022/08/18 01:39:17;;;;;;;13.18;5.38;;;;;;;17.02;100.00;99137.34;5041904;28;20025;-87
2022/08/18 01:41:44;;;;;;;13.45;5.60;;;;;;;16.98;100.00;99136.97;5064354;28;20032;-87
2022/08/18 01:44:12;;;;;;;8.82;5.10;;;;;;;17.01;100.00;99135.75;5048250;28;20028;-87
2022/08/18 01:46:40;;;;;;;9.20;5.38;;;;;;;17.06;100.00;99138.50;5047363;28;20490;-86
2022/08/18 01:49:09;;;;;;;9.50;4.90;;;;;;;17.01;100.00;99125.16;5067069;28;20119;-86
2022/08/18 01:51:36;;;;;;;11.25;5.15;;;;;;;17.01;100.00;99127.78;5064251;28;20124;-87
2022/08/18 01:54:03;;;;;;;12.30;6.00;;;;;;;16.98;100.00;99132.53;5046007;28;20041;-86
2022/08/18 01:56:30;;;;;;;11.65;5.82;;;;;;;17.01;100.00;99135.75;5066387;28;20025;-85
2022/08/18 01:58:56;;;;;;;14.18;6.95;;;;;;;16.97;100.00;99136.19;5041780;28;20105;-85
2022/08/18 02:01:23;;;;;;;17.00;8.38;;;;;;;16.99;100.00;99128.03;5055449;28;20036;-88
2022/08/18 02:03:55;;;;;;;13.95;7.47;;;;;;;16.92;100.00;99124.66;5062740;28;20036;-86
2022/08/18 02:06:21;;;;;;;16.85;7.85;;;;;;;16.87;100.00;99128.00;5038321;28;20413;-84
2022/08/18 02:08:47;;;;;;;15.02;7.95;;;;;;;16.89;100.00;99125.94;5043205;28;20036;-86
2022/08/18 02:11:13;;;;;;;14.00;6.97;;;;;;;16.89;100.00;99117.97;5058244;28;20075;-85
2022/08/18 02:13:40;;;;;;;13.88;6.22;;;;;;;16.85;100.00;99122.16;5041851;28;20043;-86
2022/08/18 02:16:07;;;;;;;12.90;6.03;;;;;;;16.82;100.00;99112.84;5044633;28;20031;-86
2022/08/18 02:18:34;;;;;;;13.10;5.68;;;;;;;16.84;100.00;99099.31;5062539;28;20540;-86
2022/08/18 02:21:13;;;;;;;16.42;5.25;;;;;;;16.87;100.00;99098.84;5041749;28;20107;-85
2022/08/18 02:23:40;;;;;;;15.25;5.05;;;;;;;16.89;100.00;99101.28;5045512;28;20426;-85
2022/08/18 02:26:11;;;;;;;12.77;5.13;;;;;;;16.85;100.00;99095.63;5057531;28;20033;-86
2022/08/18 02:28:37;;;;;;;17.15;5.13;;;;;;;16.85;100.00;99077.09;5040141;28;20040;-86
2022/08/18 02:31:06;;;;;;;13.18;4.90;;;;;;;16.84;100.00;99083.41;5056765;28;20119;-86
2022/08/18 02:33:32;;;;;;;8.85;4.93;;;;;;;16.78;100.00;99085.16;5043924;28;20033;-85
2022/08/18 02:35:58;;;;;;;10.60;5.20;;;;;;;16.84;100.00;99094.03;5061781;28;20037;-86
2022/08/18 02:38:23;;;;;;;10.13;4.80;;;;;;;16.85;100.00;99093.81;5046756;28;20036;-85
2022/08/18 02:40:59;;;;;;;11.52;4.68;;;;;;;16.81;100.00;99089.19;5044750;28;20115;-85
2022/08/18 02:43:25;;;;;;;11.05;4.35;;;;;;;16.87;100.00;99085.59;5054492;28;20064;-85
2022/08/18 02:45:51;;;;;;;10.30;4.57;;;;;;;16.88;100.00;99086.41;5042841;28;20068;-86
2022/08/18 02:48:23;;;;;;;8.57;4.32;;;;;;;16.91;100.00;99084.13;5040396;28;20113;-85
2022/08/18 02:50:48;;;;;;;9.57;4.30;;;;;;;16.85;100.00;99071.78;5067081;28;20486;-87
2022/08/18 02:53:21;;;;;;;12.75;5.38;;;;;;;16.84;100.00;99068.34;5061496;28;20035;-85
2022/08/18 02:55:47;;;;;;;12.03;4.90;;;;;;;16.83;100.00;99052.66;5059492;28;20047;-86
2022/08/18 02:58:13;;;;;;;13.32;4.72;;;;;;;16.83;100.00;99058.78;5044207;28;20278;-85
2022/08/18 03:00:39;;;;;;;11.82;4.60;;;;;;;16.82;100.00;99059.00;5063878;28;20037;-87
2022/08/18 03:03:05;;;;;;;9.73;5.07;;;;;;;16.77;100.00;99059.69;5051254;28;20036;-86
2022/08/18 03:05:31;;;;;;;11.68;4.60;;;;;;;16.84;100.00;99064.88;5046883;28;20109;-86
2022/08/18 03:07:56;;;;;;;8.00;4.30;;;;;;;16.80;100.00;99061.09;5062212;28;20480;-87
2022/08/18 03:10:22;;;;;;;8.35;4.50;;;;;;;16.83;100.00;99060.59;5049800;28;20406;-85
2022/08/18 03:12:47;;;;;;;14.32;4.90;;;;;;;16.81;100.00;99044.13;5046100;28;20078;-85
2022/08/18 03:15:13;;;;;;;9.15;3.92;;;;;;;16.88;100.00;99058.03;5048975;28;20016;-86
2022/08/18 03:17:39;;;;;;;9.80;4.18;;;;;;;16.94;100.00;99061.59;5041920;28;20108;-85
2022/08/18 03:20:05;;;;;;;10.70;4.75;;;;;;;16.89;100.00;99046.41;5060827;28;20055;-85
2022/08/18 03:22:31;;;;;;;10.63;4.72;;;;;;;16.97;100.00;99056.66;5065238;28;21048;-86
2022/08/18 03:24:57;;;;;;;8.45;4.55;;;;;;;16.92;100.00;99047.78;5064847;28;20037;-86
2022/08/18 03:27:23;;;;;;;8.13;4.03;;;;;;;16.89;100.00;99053.56;5051031;28;20422;-85
2022/08/18 03:29:49;;;;;;;6.80;4.28;;;;;;;16.84;100.00;99048.97;5066763;28;20029;-85
2022/08/18 03:32:15;;;;;;;11.18;3.75;;;;;;;16.88;100.00;99050.09;5052209;28;20482;-86
2022/08/18 03:34:42;;;;;;;11.27;3.95;;;;;;;16.94;100.00;99059.78;5068719;28;20052;-85
2022/08/18 03:37:08;;;;;;;11.90;4.50;;;;;;;16.95;100.00;99053.44;5057290;28;20025;-85
2022/08/18 03:39:33;;;;;;;12.68;4.03;;;;;;;16.93;100.00;99042.25;5081012;28;20037;-85
2022/08/18 03:41:59;;;;;;;8.88;4.70;;;;;;;16.95;100.00;99047.31;5061382;28;20017;-86
2022/08/18 03:44:26;;;;;;;11.48;4.18;;;;;;;16.89;100.00;99041.09;5086883;28;20054;-85
2022/08/18 03:46:52;;;;;;;10.73;4.35;;;;;;;16.90;100.00;99040.09;5072049;28;20116;-86
2022/08/18 03:49:19;;;;;;;13.57;4.55;;;;;;;16.95;100.00;99042.00;5047232;28;20067;-85
2022/08/18 03:51:47;;;;;;;13.23;5.35;;;;;;;16.88;100.00;99046.66;5041503;28;20494;-84
2022/08/18 03:54:15;;;;;;;9.45;4.78;;;;;;;16.95;100.00;99036.69;5046760;28;20440;-86
2022/08/18 03:56:41;;;;;;;10.52;4.85;;;;;;;16.98;100.00;99034.44;5060582;28;20060;-85
2022/08/18 03:59:20;;;;;;;10.07;5.47;;;;;;;17.05;100.00;99031.63;5065662;28;20028;-85
2022/08/18 04:01:48;;;;;;;11.52;4.65;;;;;;;16.99;100.00;99028.09;5065447;28;20375;-86
2022/08/18 04:04:17;;;;;;;11.75;4.75;;;;;;;16.99;100.00;99028.09;5066359;28;20033;-85
2022/08/18 04:06:50;;;;;;;9.32;4.57;;;;;;;17.03;100.00;99028.41;5055418;28;20047;-84
2022/08/18 04:09:17;;;;;;;14.25;4.53;;;;;;;17.02;100.00;99031.28;5062461;28;20115;-85
2022/08/18 04:11:43;;;;;;;10.82;5.15;;;;;;;17.02;100.00;99034.75;5059145;28;20386;-85
2022/08/18 04:14:11;;;;;;;10.45;4.82;;;;;;;17.05;100.00;99036.13;5044420;28;20112;-85
2022/08/18 04:16:38;;;;;;;15.02;4.88;;;;;;;17.08;100.00;99031.16;5064574;28;20035;-86
2022/08/18 04:19:04;;;;;;;12.63;4.65;;;;;;;17.11;100.00;99030.69;5047702;28;20041;-85
2022/08/18 04:21:33;;;;;;;9.93;4.38;;;;;;;17.02;100.00;99023.34;5061291;28;20032;-86
2022/08/18 04:24:02;;;;;;;10.10;5.18;;;;;;;17.05;100.00;99025.50;5057638;28;20056;-85
2022/08/18 04:26:33;;;;;;;8.00;4.07;;;;;;;17.08;100.00;99027.69;5045099;28;20025;-85
2022/08/18 04:29:02;;;;;;;11.95;5.07;;;;;;;17.10;100.00;99033.59;5052135;28;20025;-85
2022/08/18 04:31:29;;;;;;;8.27;3.85;;;;;;;17.08;100.00;99031.16;5061214;28;20040;-86
2022/08/18 04:33:57;;;;;;;8.27;3.90;;;;;;;17.04;100.00;99010.66;5065237;28;20056;-85
2022/08/18 04:36:25;;;;;;;11.88;4.60;;;;;;;17.12;100.00;99026.19;5048179;28;20040;-85
2022/08/18 04:38:50;;;;;;;7.13;3.60;;;;;;;17.06;100.00;99011.22;5061439;28;20029;-86
2022/08/18 04:41:17;;;;;;;7.35;4.43;;;;;;;17.12;100.00;99020.88;5062100;28;20426;-85
2022/08/18 04:43:42;;;;;;;11.05;4.90;;;;;;;17.08;100.00;99019.72;5043718;28;20043;-85
2022/08/18 04:46:09;;;;;;;13.77;4.47;;;;;;;17.13;100.00;99019.84;5066363;28;20119;-86
2022/08/18 04:48:38;;;;;;;9.52;4.70;;;;;;;17.15;100.00;99027.53;5039348;28;20441;-86
2022/08/18 04:51:06;;;;;;;7.85;4.40;;;;;;;17.15;100.00;99036.31;5066561;28;20025;-85
2022/08/18 04:53:43;;;;;;;9.75;4.30;;;;;;;17.13;100.00;99030.44;5059795;28;20471;-85
2022/08/18 04:56:21;;;;;;;7.80;4.47;;;;;;;17.21;100.00;99032.72;5046738;28;20029;-86
2022/08/18 04:58:51;;;;;;;8.38;4.88;;;;;;;17.03;100.00;99015.16;5062903;28;20048;-85
2022/08/18 05:01:20;;;;;;;8.85;4.88;;;;;;;17.16;100.00;99029.16;5059229;28;20429;-87
2022/08/18 05:03:48;;;;;;;12.05;4.88;;;;;;;17.11;100.00;99027.22;5059850;28;20028;-87
2022/08/18 05:06:14;;;;;;;7.43;4.30;;;;;;;17.12;100.00;99026.19;5056813;28;20383;-86
2022/08/18 05:08:39;;;;;;;14.30;5.15;;;;;;;17.04;100.00;99015.94;5062652;28;20024;-85
2022/08/18 05:11:06;;;;;;;8.45;4.80;;;;;;;17.18;100.00;99025.22;5059994;28;20082;-85
2022/08/18 05:13:32;;;;;;;10.68;4.45;;;;;;;17.17;100.00;99018.31;5041528;28;20478;-86
2022/08/18 05:16:02;;;;;;;7.07;4.57;;;;;;;17.23;100.00;99012.06;5043816;28;20103;-86
2022/08/18 05:18:35;;;;;;;9.88;4.78;;;;;;;17.26;100.00;99016.88;5060750;28;20033;-87
2022/08/18 05:21:00;;;;;;;11.35;4.45;;;;;;;17.14;100.00;98997.59;5065021;28;20029;-85
2022/08/18 05:23:28;;;;;;;13.70;4.63;;;;;;;17.27;100.00;99007.88;5041939;28;20036;-86
2022/08/18 05:26:02;;;;;;;7.82;4.55;;;;;;;17.34;100.00;99006.94;5062519;28;20123;-87
2022/08/18 05:28:30;;;;;;;9.43;4.18;;;;;;;17.31;100.00;99012.72;5043559;28;20037;-86
2022/08/18 05:30:56;;;;;;;7.55;4.45;;;;;;;17.27;100.00;99002.56;5039738;28;20033;-87
2022/08/18 05:33:25;;;;;;;12.35;4.35;;;;;;;17.33;100.00;98994.72;5041013;28;20028;-86
2022/08/18 05:36:02;;;;;;;10.35;4.30;;;;;;;17.38;100.00;98997.44;5062875;28;20482;-86
2022/08/18 05:38:45;;;;;;;8.50;4.00;;;;;;;17.34;100.00;98993.66;5057845;28;20408;-86
2022/08/18 05:41:26;;;;;;;7.13;4.28;;;;;;;17.33;100.00;98984.09;5059647;28;20387;-86
2022/08/18 05:43:53;;;;;;;8.68;4.38;;;;;;;17.38;100.00;98987.63;5056423;28;20114;-87
2022/08/18 05:46:28;;;;;;;7.75;3.70;;;;;;;17.50;100.00;98989.41;5060257;28;20044;-87
2022/08/18 05:48:53;;;;;;;13.00;4.30;;;;;;;17.56;100.00;98985.78;5046834;28;20029;-85
2022/08/18 05:51:27;;;;;;;9.43;4.45;;;;;;;17.55;100.00;98992.94;5042607;28;20406;-86
2022/08/18 05:56:47;;;;;;;5.18;3.97;;;;;;;17.61;100.00;98985.06;5059393;28;20032;-85
2022/08/18 05:59:34;;;;;;;10.38;4.15;;;;;;;17.58;100.00;98996.16;5043036;28;20073;-86
2022/08/18 06:02:14;;;;;;;7.00;3.60;;;;;;;17.65;100.00;98992.31;5060380;28;20025;-86
2022/08/18 06:04:58;;;;;;;8.32;4.03;;;;;;;17.63;100.00;98999.69;5044211;28;20036;-87
2022/08/18 06:07:40;;;;;;;10.88;3.55;;;;;;;17.61;100.00;98983.22;5061053;28;20559;-86
2022/08/18 06:10:08;;;;;;;7.03;3.50;;;;;;;17.67;100.00;98992.84;5040001;28;20024;-87
2022/08/18 06:12:42;;;;;;;8.02;3.78;;;;;;;17.67;100.00;99000.00;5040917;28;20091;-86
2022/08/18 06:15:35;;;;;;;7.25;3.97;;;;;;;17.68;100.00;98991.00;5043321;28;20032;-86
2022/08/18 06:18:20;;;;;;;9.80;4.00;;;;;;;17.69;100.00;98995.28;5048923;28;20035;-86
2022/08/18 06:21:38;;;;;;;8.85;3.92;;;;;;;17.62;100.00;98976.03;5064706;28;20056;-85
2022/08/18 06:24:27;;;;;;;7.00;4.15;;;;;;;17.72;100.00;98986.81;5007292;28;20041;-87
2022/08/18 06:27:03;;;;;;;8.45;4.15;;;;;;;17.72;100.00;98988.66;4991606;28;20033;-85
2022/08/18 06:29:35;;;;;;;8.68;4.70;;;;;;;17.68;100.00;98988.34;5043771;28;20376;-86
2022/08/18 06:32:27;;;;;;;8.93;4.25;;;;;;;17.74;100.00;98978.59;5062343;28;20391;-85
2022/08/18 06:35:17;;;;;;;9.23;4.05;;;;;;;17.74;100.00;98978.59;5050355;28;20525;-86
2022/08/18 06:41:15;;;;;;;7.18;3.80;;;;;;;17.88;100.00;98979.06;5065750;28;20433;-87
2022/08/18 06:44:09;;;;;;;8.57;3.97;;;;;;;17.96;100.00;98976.00;5068977;28;20028;-85
2022/08/18 06:46:58;;;;;;;10.25;4.30;;;;;;;18.06;100.00;98975.38;5066056;28;20040;-85
2022/08/18 06:49:30;;;;;;;7.75;4.13;;;;;;;18.26;100.00;98974.81;5059273;28;20033;-85
2022/08/18 06:52:01;;;;;;;7.88;3.85;;;;;;;18.40;100.00;98965.44;5060902;28;20035;-86
2022/08/18 06:54:54;;;;;;;7.53;4.28;;;;;;;18.58;100.00;98963.50;5063607;28;20039;-85
2022/08/18 06:57:26;;;;;;;9.55;4.25;;;;;;;18.66;100.00;98960.38;5043416;28;20044;-86
2022/08/18 06:59:59;;;;;;;5.93;4.23;;;;;;;18.69;100.00;98953.78;5044455;28;20029;-88
2022/08/18 07:02:40;;;;;;;9.80;3.63;;;;;;;18.76;100.00;98951.72;5048892;28;20037;-85
2022/08/18 07:05:18;;;;;;;9.57;3.90;;;;;;;18.90;100.00;98962.78;5043685;28;20589;-86
2022/08/18 07:07:43;;;;;;;8.70;3.72;;;;;;;18.98;100.00;98965.00;5060927;28;20032;-85
2022/08/18 07:10:15;;;;;;;6.53;4.20;;;;;;;19.21;100.00;98962.28;5045784;28;20060;-86
2022/08/18 07:12:41;;;;;;;6.25;3.85;;;;;;;19.36;100.00;98965.06;5064552;28;20028;-85
2022/08/18 07:15:11;;;;;;;6.35;3.72;;;;;;;19.46;100.00;98960.88;5061382;28;20021;-85
2022/08/18 07:17:37;;;;;;;8.15;4.25;;;;;;;19.38;100.00;98972.78;5063915;28;20035;-86
2022/08/18 07:20:09;;;;;;;10.35;4.60;;;;;;;19.25;100.00;98971.34;5061826;28;20025;-87
2022/08/18 07:23:20;;;;;;;8.68;4.32;;;;;;;19.22;100.00;98970.00;5064871;28;20051;-85
2022/08/18 07:25:49;;;;;;;7.55;4.25;;;;;;;19.22;100.00;98966.53;5013476;28;20128;-87
2022/08/18 07:28:41;;;;;;;7.63;4.22;;;;;;;19.17;100.00;98966.50;5039383;28;20465;-87
2022/08/18 07:31:33;;;;;;;13.88;5.30;;;;;;;18.97;100.00;98963.38;5044338;28;20037;-86
2022/08/18 07:34:11;;;;;;;11.95;5.55;;;;;;;18.91;100.00;98967.03;5061998;28;20029;-88
2022/08/18 07:36:46;;;;;;;11.27;5.00;;;;;;;19.00;100.00;98961.28;5059805;28;20058;-84
2022/08/18 07:39:24;;;;;;;12.88;5.43;;;;;;;19.13;100.00;98966.19;5054301;28;20383;-84
2022/08/18 07:42:16;;;;;;;12.38;5.68;;;;;;;19.16;100.00;98962.22;5059604;28;20039;-84
2022/08/18 07:45:22;;;;;;;12.98;5.75;;;;;;;19.28;100.00;98965.53;5035914;28;20041;-84
2022/08/18 07:48:06;;;;;;;13.30;6.28;;;;;;;19.47;100.00;98965.94;5059831;28;20037;-85
2022/08/18 07:50:46;;;;;;;13.77;6.18;;;;;;;19.40;100.00;98965.34;5045451;28;20056;-86
2022/08/18 07:53:43;;;;;;;18.33;8.52;;;;;;;19.48;100.00;98954.25;5062587;28;20178;-87
2022/08/18 07:56:45;;;;;;;14.93;7.00;;;;;;;19.70;100.00;98963.97;5066133;28;20024;-85
2022/08/18 07:59:47;;;;;;;17.23;8.10;;;;;;;19.81;100.00;98959.50;5042159;28;20085;-85
2022/08/18 08:02:50;;;;;;;15.02;7.63;;;;;;;19.97;100.00;98963.06;5058827;28;20549;-85
2022/08/18 08:05:32;;;;;;;17.65;7.85;;;;;;;19.92;100.00;98960.41;5056487;28;20498;-85
2022/08/18 08:08:17;;;;;;;17.05;7.10;;;;;;;19.86;100.00;98953.41;5062811;28;20485;-86
2022/08/18 08:10:58;;;;;;;15.98;7.28;;;;;;;19.75;100.00;98947.19;5063489;28;20033;-86
2022/08/18 08:13:41;;;;;;;16.65;7.50;;;;;;;19.69;100.00;98951.72;5059107;28;20028;-86
2022/08/18 08:16:23;;;;;;;11.63;7.30;;;;;;;19.73;100.00;98946.66;5047154;28;20116;-87
2022/08/18 08:19:00;;;;;;;14.18;7.57;;;;;;;19.80;100.00;98948.03;5062428;28;20068;-85
2022/08/18 08:21:33;;;;;;;16.25;7.72;;;;;;;19.50;100.00;98949.47;5047200;28;20487;-85
2022/08/18 08:24:05;;;;;;;;;;;;;;;19.53;100.00;98961.44;5062861;28;20052;-86
2022/08/18 08:26:56;;;;;;;13.07;7.22;;;;;;;19.76;100.00;98952.28;5063229;28;19977;-85
2022/08/18 08:29:43;;;;;;;13.90;7.82;;;;;;;19.84;100.00;98959.78;5055940;28;20040;-87
2022/08/18 08:32:15;;;;;;;15.15;7.57;;;;;;;19.94;100.00;98958.28;5057590;28;20386;-87
2022/08/18 08:34:51;;;;;;;14.95;8.10;;;;;;;20.04;100.00;98952.97;5049606;28;20056;-86
2022/08/18 08:37:23;;;;;;;14.32;7.82;;;;;;;20.13;100.00;98955.94;5043451;28;20112;-86
2022/08/18 08:40:02;;;;;;;14.70;7.18;;;;;;;20.07;100.00;98951.66;5042039;28;20471;-87
2022/08/18 08:42:46;;;;;;;17.48;7.68;;;;;;;19.37;100.00;98945.38;5059995;28;20167;-87
2022/08/18 08:45:17;;;;;;;13.68;7.43;;;;;;;19.91;100.00;98948.91;5045080;28;20037;-84
2022/08/18 08:48:10;;;;;;;13.52;8.30;;;;;;;19.90;100.00;98941.19;5058854;28;20414;-87
2022/08/18 08:50:54;;;;;;;14.77;8.63;;;;;;;20.23;100.00;98925.88;5038949;28;20037;-86
2022/08/18 08:53:26;;;;;;;15.00;9.52;;;;;;;20.48;100.00;98929.72;5047465;28;20061;-86
2022/08/18 08:55:57;;;;;;;20.05;9.90;;;;;;;20.55;100.00;98917.72;5046444;28;20130;-86
2022/08/18 08:58:47;;;;;;;15.48;10.13;;;;;;;21.08;100.00;98910.59;5059587;28;20038;-85
2022/08/18 09:01:28;;;;;;;15.45;9.43;;;;;;;21.33;100.00;98922.31;5039483;28;20025;-86
2022/08/18 09:04:18;;;;;;;18.67;10.07;;;;;;;21.47;100.00;98915.38;5043777;28;20020;-87
2022/08/18 09:06:44;;;;;;;12.23;8.85;;;;;;;21.86;100.00;98907.81;5058684;28;20036;-87
2022/08/18 09:09:25;;;;;;;15.75;8.68;;;;;;;22.18;100.00;98910.09;5040156;28;20037;-87
2022/08/18 09:12:06;;;;;;;14.65;9.15;;;;;;;22.60;100.00;98901.88;5043547;28;20029;-87
2022/08/18 09:14:53;;;;;;;10.35;7.22;;;;;;;22.76;100.00;98897.19;5043678;28;20033;-86
2022/08/18 09:17:27;;;;;;;11.07;7.25;;;;;;;23.16;100.00;98887.25;5040778;28;21633;-87
2022/08/18 09:20:35;;;;;;;9.55;6.28;;;;;;;23.27;100.00;98892.53;5046495;28;20029;-86
2022/08/18 09:23:12;;;;;;;7.55;5.55;;;;;;;23.34;100.00;98884.97;5061535;28;20121;-87
2022/08/18 09:25:40;;;;;;;7.45;5.55;;;;;;;22.85;100.00;98887.53;5062333;28;20032;-86
2022/08/18 09:28:11;;;;;;;12.30;6.18;;;;;;;22.88;100.00;98878.13;5044133;28;20039;-86
2022/08/18 09:30:58;;;;;;;8.45;5.55;;;;;;;22.87;100.00;98887.22;5057749;28;20044;-87
2022/08/18 09:33:39;;;;;;;5.93;4.93;;;;;;;23.52;100.00;98891.50;5044643;28;20029;-86
2022/08/18 09:36:29;;;;;;;7.00;5.45;;;;;;;23.78;100.00;98883.16;5040101;28;20045;-87
2022/08/18 09:42:17;;;;;;;5.72;4.80;;;;;;;23.99;100.00;98875.69;5062517;28;20065;-88
2022/08/18 09:44:45;;;;;;;6.57;4.60;;;;;;;24.14;100.00;98869.34;5059885;28;20087;-86
2022/08/18 09:47:23;;;;;;;7.80;5.15;;;;;;;23.97;100.00;98869.78;5064193;28;20417;-84
2022/08/18 09:49:52;;;;;;;9.65;6.57;;;;;;;23.39;100.00;98885.72;5062052;28;20036;-87
2022/08/18 09:52:21;;;;;;;15.35;6.53;;;;;;;23.32;100.00;98881.78;5067079;28;20081;-86
2022/08/18 09:55:29;;;;;;;6.65;5.70;;;;;;;23.85;100.00;98877.47;5042264;28;20398;-85
2022/08/18 09:58:25;;;;;;;10.48;7.60;;;;;;;24.53;100.00;98870.13;5068378;28;20517;-86
2022/08/18 10:01:30;;;;;;;8.88;6.20;;;;;;;24.86;100.00;98872.06;5055330;28;20391;-87
2022/08/18 10:04:15;;;;;;;8.20;6.60;;;;;;;25.42;100.00;98867.59;5048762;28;20025;-87
2022/08/18 10:06:42;;;;;;;10.00;7.93;;;;;;;25.48;100.00;98852.22;5044874;28;20170;-86
2022/08/18 10:09:53;;;;;;;8.93;7.13;;;;;;;25.86;100.00;98853.88;5062538;28;20048;-86
2022/08/18 10:12:30;;;;;;;8.85;7.57;;;;;;;26.34;100.00;98849.91;5063821;28;20440;-88
2022/08/18 10:15:15;;;;;;;8.05;7.07;;;;;;;26.58;100.00;98841.53;5065145;28;20071;-88
2022/08/18 10:17:55;;;;;;;12.75;8.55;;;;;;;26.65;100.00;98841.88;5043659;28;20037;-87
2022/08/18 10:20:53;;;;;;;11.65;8.20;;;;;;;26.76;100.00;98837.03;5060829;28;20028;-86
2022/08/18 10:23:47;;;;;;;8.52;7.68;;;;;;;26.30;99.50;98832.78;5045641;28;20032;-86
2022/08/18 10:26:32;;;;;;;;;;;;;;;26.01;99.39;98823.97;5061716;28;20058;-86
2022/08/18 10:29:05;;;;;;;12.93;9.20;;;;;;;25.76;100.00;98809.97;5063585;28;19916;-86
2022/08/18 10:31:54;;;;;;;11.90;9.20;;;;;;;26.02;100.00;98808.59;5065166;28;20105;-86
2022/08/18 10:34:39;;;;;;;11.32;8.85;;;;;;;25.94;100.00;98805.56;5044612;28;20037;-85
2022/08/18 10:37:38;;;;;;;13.45;10.27;;;;;;;25.59;100.00;98799.84;5058305;28;20127;-86
2022/08/18 10:40:22;;;;;;;13.68;9.63;;;;;;;25.69;100.00;98796.13;5064609;28;20044;-85
2022/08/18 10:43:11;;;;;;;12.27;8.98;;;;;;;25.39;100.00;98792.97;5063005;28;20039;-86
2022/08/18 10:45:44;;;;;;;12.95;8.77;;;;;;;25.21;100.00;98798.16;5044885;28;20386;-86
2022/08/18 10:48:29;;;;;;;9.95;8.30;;;;;;;25.07;100.00;98789.28;5064294;28;20409;-86
2022/08/18 10:51:10;;;;;;;12.40;8.88;;;;;;;24.62;100.00;98793.25;5058320;28;20047;-87
2022/08/18 10:53:55;;;;;;;12.73;9.77;;;;;;;24.81;100.00;98809.31;5052068;28;20063;-86
2022/08/18 10:56:25;;;;;;;11.65;9.60;;;;;;;25.08;100.00;98801.59;5059697;28;20020;-86
2022/08/18 10:59:08;;;;;;;12.57;10.70;;;;;;;24.86;100.00;98802.25;5041024;28;20474;-87
2022/08/18 11:01:50;;;;;;;14.65;10.70;;;;;;;25.02;100.00;98810.84;5066215;28;20029;-86
2022/08/18 11:04:28;;;;;;;12.88;10.35;;;;;;;25.16;100.00;98806.31;5040686;28;20025;-86
2022/08/18 11:07:05;;;;;;;15.18;11.23;;;;;;;24.19;100.00;98812.16;5060960;28;20064;-86
2022/08/18 11:09:31;;;;;;;13.82;11.63;;;;;;;24.57;100.00;98820.19;5061407;28;20036;-87
2022/08/18 11:12:03;;;;;;;13.85;10.18;;;;;;;25.29;100.00;98796.66;5045381;28;20093;-87
2022/08/18 11:14:40;;;;;;;13.98;9.20;;;;;;;25.90;100.00;98811.84;5041481;28;20037;-87
2022/08/18 11:17:15;;;;;;;13.20;11.02;;;;;;;25.81;97.00;98807.19;5040645;28;20036;-86
2022/08/18 11:19:46;;;;;;;15.25;9.55;;;;;;;26.40;96.71;98783.31;5061399;28;20025;-87
2022/08/18 11:22:23;;;;;;;14.50;10.98;;;;;;;25.79;95.41;98801.31;5060158;28;20119;-85
2022/08/18 11:24:52;;;;;;;13.57;10.27;;;;;;;26.15;95.15;98786.25;5068282;28;20024;-85
2022/08/18 11:27:21;;;;;;;12.38;9.20;;;;;;;26.60;94.69;98790.88;5063679;28;20025;-86
2022/08/18 11:29:47;;;;;;;11.48;10.02;;;;;;;26.29;92.28;98783.53;5047432;28;20446;-86
2022/08/18 11:32:33;;;;;;;14.65;10.05;;;;;;;26.35;93.77;98785.03;5046756;28;20446;-86
2022/08/18 11:35:02;;;;;;;13.38;9.98;;;;;;;26.51;94.41;98793.50;5059613;28;20040;-86
2022/08/18 11:37:30;;;;;;;12.32;9.93;;;;;;;26.22;93.68;98780.50;5065530;28;20462;-86
2022/08/18 11:39:58;;;;;;;11.63;10.38;;;;;;;26.54;94.31;98781.34;5041252;28;20451;-86
2022/08/18 11:42:33;;;;;;;12.45;9.18;;;;;;;26.98;92.43;98773.50;5062614;28;20093;-87
2022/08/18 11:45:15;;;;;;;20.25;11.52;;;;;;;26.74;90.88;98763.09;5050805;28;20089;-86
2022/08/18 11:47:59;;;;;;;14.15;10.27;;;;;;;27.14;90.73;98771.22;5050121;28;20098;-87
2022/08/18 11:50:31;;;;;;;11.90;10.73;;;;;;;26.86;91.53;98766.00;5047477;28;20028;-87
2022/08/18 11:53:17;;;;;;;12.20;10.13;;;;;;;27.15;91.27;98755.81;5068511;28;20120;-86
2022/08/18 11:55:43;;;;;;;9.52;8.55;;;;;;;26.75;89.13;98753.91;5077533;28;20028;-86
2022/08/18 11:58:09;;;;;;;10.48;7.78;;;;;;;26.73;87.77;98756.91;5081874;28;20086;-85
2022/08/18 12:00:47;;;;;;;10.13;7.68;;;;;;;26.74;87.55;98755.00;5079425;28;20043;-86
2022/08/18 12:03:19;;;;;;;8.70;7.75;;;;;;;26.04;86.27;98755.31;5080596;28;20025;-85
2022/08/18 12:05:55;;;;;;;8.65;7.78;;;;;;;26.47;87.91;98751.38;5075981;28;20040;-87
2022/08/18 12:08:29;;;;;;;9.90;8.70;;;;;;;25.84;88.89;98752.00;5043519;28;20074;-87
2022/08/18 12:11:19;;;;;;;;;;;;;;;26.30;90.57;98755.53;5049164;28;20042;-88